Terminal Aerodrome Forecast
Issued by NWS

Home | Current Version | Previous Version | Text Only | Print | Product List | Glossary On
Versions: 1 2 3 4 5 6 7 8 9 10 11 12 13 14
000
FTUS46 KLOX 280500
TAFLGB
TAF
KLGB 280539Z 2806/2906 VRB03KT P6SM BKN250
     FM281000 VRB03KT 5SM BR SCT004 BKN250
     FM281600 01005KT P6SM BKN250
     FM282000 28008KT P6SM BKN250
     FM290300 VRB03KT P6SM BKN200=

USA.gov is the U.S. government's official web portal to all federal, state and local government web resources and services.